sensor_id;sensor_type;location;lat;lon;timestamp;temperature;humidity
29731;DHT22;16639;51.488;0.152;2022-12-29T00:02:27;9.40;99.90
29731;DHT22;16639;51.488;0.152;2022-12-29T00:04:54;9.40;99.90
29731;DHT22;16639;51.488;0.152;2022-12-29T00:07:21;9.40;99.90
29731;DHT22;16639;51.488;0.152;2022-12-29T00:09:48;9.40;99.90
29731;DHT22;16639;51.488;0.152;2022-12-29T00:12:16;9.40;99.90
29731;DHT22;16639;51.488;0.152;2022-12-29T00:14:43;9.50;99.90
29731;DHT22;16639;51.488;0.152;2022-12-29T00:17:29;9.50;99.90
29731;DHT22;16639;51.488;0.152;2022-12-29T00:19:56;9.50;99.90
29731;DHT22;16639;51.488;0.152;2022-12-29T00:22:43;9.40;99.90
29731;DHT22;16639;51.488;0.152;2022-12-29T00:25:29;9.50;99.90
29731;DHT22;16639;51.488;0.152;2022-12-29T00:28:15;9.50;99.90
29731;DHT22;16639;51.488;0.152;2022-12-29T00:31:01;9.40;99.90
29731;DHT22;16639;51.488;0.152;2022-12-29T00:33:46;9.50;99.90
29731;DHT22;16639;51.488;0.152;2022-12-29T00:36:36;10.10;99.90
29731;DHT22;16639;51.488;0.152;2022-12-29T00:39:15;9.40;99.90
29731;DHT22;16639;51.488;0.152;2022-12-29T00:42:03;9.40;99.90
29731;DHT22;16639;51.488;0.152;2022-12-29T00:44:48;9.40;99.90
29731;DHT22;16639;51.488;0.152;2022-12-29T00:47:16;9.40;99.90
29731;DHT22;16639;51.488;0.152;2022-12-29T00:49:44;9.40;99.90
29731;DHT22;16639;51.488;0.152;2022-12-29T00:52:12;9.50;99.90
29731;DHT22;16639;51.488;0.152;2022-12-29T00:54:39;9.50;99.90
29731;DHT22;16639;51.488;0.152;2022-12-29T00:57:08;9.50;99.90
29731;DHT22;16639;51.488;0.152;2022-12-29T00:59:35;9.50;99.90
29731;DHT22;16639;51.488;0.152;2022-12-29T01:02:03;9.40;99.90
29731;DHT22;16639;51.488;0.152;2022-12-29T01:04:30;8.60;99.90
29731;DHT22;16639;51.488;0.152;2022-12-29T01:06:59;9.40;99.90
29731;DHT22;16639;51.488;0.152;2022-12-29T01:09:26;9.80;99.90
29731;DHT22;16639;51.488;0.152;2022-12-29T01:12:12;9.40;99.90
29731;DHT22;16639;51.488;0.152;2022-12-29T01:14:40;9.40;99.90
29731;DHT22;16639;51.488;0.152;2022-12-29T01:17:07;9.40;99.90
29731;DHT22;16639;51.488;0.152;2022-12-29T01:19:34;9.40;99.90
29731;DHT22;16639;51.488;0.152;2022-12-29T01:22:02;9.30;99.90
29731;DHT22;16639;51.488;0.152;2022-12-29T01:24:29;9.30;99.90
29731;DHT22;16639;51.488;0.152;2022-12-29T01:26:56;10.50;99.90
29731;DHT22;16639;51.488;0.152;2022-12-29T01:29:23;9.40;99.90
29731;DHT22;16639;51.488;0.152;2022-12-29T01:31:50;9.40;99.90
29731;DHT22;16639;51.488;0.152;2022-12-29T01:34:17;9.30;99.90
29731;DHT22;16639;51.488;0.152;2022-12-29T01:36:45;10.50;99.90
29731;DHT22;16639;51.488;0.152;2022-12-29T01:39:12;9.30;99.90
29731;DHT22;16639;51.488;0.152;2022-12-29T01:41:40;9.30;99.90
29731;DHT22;16639;51.488;0.152;2022-12-29T01:46:56;9.40;99.90
29731;DHT22;16639;51.488;0.152;2022-12-29T01:49:24;9.30;99.90
29731;DHT22;16639;51.488;0.152;2022-12-29T01:51:54;9.30;99.90
29731;DHT22;16639;51.488;0.152;2022-12-29T01:54:24;9.30;99.90
29731;DHT22;16639;51.488;0.152;2022-12-29T01:56:52;9.30;99.90
29731;DHT22;16639;51.488;0.152;2022-12-29T01:59:22;9.30;99.90
29731;DHT22;16639;51.488;0.152;2022-12-29T02:01:50;9.30;99.90
29731;DHT22;16639;51.488;0.152;2022-12-29T02:04:18;9.30;99.90
29731;DHT22;16639;51.488;0.152;2022-12-29T02:06:46;9.30;99.90
29731;DHT22;16639;51.488;0.152;2022-12-29T02:09:15;9.30;99.90
29731;DHT22;16639;51.488;0.152;2022-12-29T02:11:44;9.20;99.90
29731;DHT22;16639;51.488;0.152;2022-12-29T02:14:12;9.30;99.90
29731;DHT22;16639;51.488;0.152;2022-12-29T02:19:29;9.10;99.90
29731;DHT22;16639;51.488;0.152;2022-12-29T02:24:37;9.20;99.90
29731;DHT22;16639;51.488;0.152;2022-12-29T02:27:22;9.20;99.90
29731;DHT22;16639;51.488;0.152;2022-12-29T02:32:33;9.20;99.90
29731;DHT22;16639;51.488;0.152;2022-12-29T02:35:09;9.10;99.90
29731;DHT22;16639;51.488;0.152;2022-12-29T02:37:42;9.10;99.90
29731;DHT22;16639;51.488;0.152;2022-12-29T02:42:51;9.20;99.90
29731;DHT22;16639;51.488;0.152;2022-12-29T02:45:30;9.20;99.90
29731;DHT22;16639;51.488;0.152;2022-12-29T02:48:21;9.20;99.90
29731;DHT22;16639;51.488;0.152;2022-12-29T02:50:57;8.60;99.90
29731;DHT22;16639;51.488;0.152;2022-12-29T02:53:25;9.10;99.90
29731;DHT22;16639;51.488;0.152;2022-12-29T02:56:12;9.10;99.90
29731;DHT22;16639;51.488;0.152;2022-12-29T02:58:40;9.20;99.90
29731;DHT22;16639;51.488;0.152;2022-12-29T03:06:44;9.20;99.90
29731;DHT22;16639;51.488;0.152;2022-12-29T03:12:29;9.20;99.90
29731;DHT22;16639;51.488;0.152;2022-12-29T03:20:10;9.00;99.90
29731;DHT22;16639;51.488;0.152;2022-12-29T03:22:42;9.20;99.90
29731;DHT22;16639;51.488;0.152;2022-12-29T03:25:18;9.20;99.90
29731;DHT22;16639;51.488;0.152;2022-12-29T03:27:55;9.20;99.90
29731;DHT22;16639;51.488;0.152;2022-12-29T03:30:22;9.30;99.90
29731;DHT22;16639;51.488;0.152;2022-12-29T03:32:51;9.30;99.90
29731;DHT22;16639;51.488;0.152;2022-12-29T03:35:22;9.40;99.90
29731;DHT22;16639;51.488;0.152;2022-12-29T03:37:58;9.40;99.90
29731;DHT22;16639;51.488;0.152;2022-12-29T03:40:27;9.50;99.90
29731;DHT22;16639;51.488;0.152;2022-12-29T03:42:55;9.50;99.90
29731;DHT22;16639;51.488;0.152;2022-12-29T03:45:22;9.50;99.90
29731;DHT22;16639;51.488;0.152;2022-12-29T03:47:50;9.60;99.90
29731;DHT22;16639;51.488;0.152;2022-12-29T03:50:17;9.50;99.90
29731;DHT22;16639;51.488;0.152;2022-12-29T03:52:44;9.60;99.90
29731;DHT22;16639;51.488;0.152;2022-12-29T03:55:13;9.60;99.90
29731;DHT22;16639;51.488;0.152;2022-12-29T03:57:40;9.60;99.90
29731;DHT22;16639;51.488;0.152;2022-12-29T04:00:07;9.60;99.90
29731;DHT22;16639;51.488;0.152;2022-12-29T04:02:35;9.60;99.90
29731;DHT22;16639;51.488;0.152;2022-12-29T04:05:04;9.60;99.90
29731;DHT22;16639;51.488;0.152;2022-12-29T04:07:31;9.60;99.90
29731;DHT22;16639;51.488;0.152;2022-12-29T04:09:58;10.70;99.90
29731;DHT22;16639;51.488;0.152;2022-12-29T04:12:26;9.70;99.90
29731;DHT22;16639;51.488;0.152;2022-12-29T04:14:53;9.70;99.90
29731;DHT22;16639;51.488;0.152;2022-12-29T04:17:22;9.70;99.90
29731;DHT22;16639;51.488;0.152;2022-12-29T04:19:50;8.80;99.90
29731;DHT22;16639;51.488;0.152;2022-12-29T04:22:17;9.70;99.90
29731;DHT22;16639;51.488;0.152;2022-12-29T04:24:45;9.70;99.90
29731;DHT22;16639;51.488;0.152;2022-12-29T04:27:12;9.70;99.90
29731;DHT22;16639;51.488;0.152;2022-12-29T04:29:40;9.70;99.90
29731;DHT22;16639;51.488;0.152;2022-12-29T04:32:07;9.60;99.90
29731;DHT22;16639;51.488;0.152;2022-12-29T04:34:36;9.70;99.90
29731;DHT22;16639;51.488;0.152;2022-12-29T04:37:03;9.70;99.90
29731;DHT22;16639;51.488;0.152;2022-12-29T04:39:30;9.60;99.90
29731;DHT22;16639;51.488;0.152;2022-12-29T04:41:57;9.70;99.90
29731;DHT22;16639;51.488;0.152;2022-12-29T04:44:25;9.70;99.90
29731;DHT22;16639;51.488;0.152;2022-12-29T04:46:52;9.60;99.90
29731;DHT22;16639;51.488;0.152;2022-12-29T04:49:19;9.60;99.90
29731;DHT22;16639;51.488;0.152;2022-12-29T04:51:47;9.50;99.90
29731;DHT22;16639;51.488;0.152;2022-12-29T04:54:14;9.60;99.90
29731;DHT22;16639;51.488;0.152;2022-12-29T04:56:41;9.40;99.90
29731;DHT22;16639;51.488;0.152;2022-12-29T04:59:08;9.50;99.90
29731;DHT22;16639;51.488;0.152;2022-12-29T05:01:35;9.40;99.90
29731;DHT22;16639;51.488;0.152;2022-12-29T05:04:03;9.40;99.90
29731;DHT22;16639;51.488;0.152;2022-12-29T05:06:30;9.40;99.90
29731;DHT22;16639;51.488;0.152;2022-12-29T05:08:57;9.50;99.90
29731;DHT22;16639;51.488;0.152;2022-12-29T05:11:24;9.30;99.90
29731;DHT22;16639;51.488;0.152;2022-12-29T05:13:51;9.30;99.90
29731;DHT22;16639;51.488;0.152;2022-12-29T05:16:19;9.30;99.90
29731;DHT22;16639;51.488;0.152;2022-12-29T05:18:46;9.30;99.90
29731;DHT22;16639;51.488;0.152;2022-12-29T05:21:14;9.30;99.90
29731;DHT22;16639;51.488;0.152;2022-12-29T05:23:41;9.30;99.90
29731;DHT22;16639;51.488;0.152;2022-12-29T05:26:08;9.30;99.90
29731;DHT22;16639;51.488;0.152;2022-12-29T05:28:36;9.40;99.90
29731;DHT22;16639;51.488;0.152;2022-12-29T05:31:04;9.40;99.90
29731;DHT22;16639;51.488;0.152;2022-12-29T05:33:31;9.30;99.90
29731;DHT22;16639;51.488;0.152;2022-12-29T05:36:07;9.30;99.90
29731;DHT22;16639;51.488;0.152;2022-12-29T05:38:35;9.40;99.90
29731;DHT22;16639;51.488;0.152;2022-12-29T05:41:02;9.30;99.90
29731;DHT22;16639;51.488;0.152;2022-12-29T05:43:29;9.30;99.90
29731;DHT22;16639;51.488;0.152;2022-12-29T05:45:56;9.30;99.90
29731;DHT22;16639;51.488;0.152;2022-12-29T05:48:24;9.40;99.90
29731;DHT22;16639;51.488;0.152;2022-12-29T05:50:51;9.30;99.90
29731;DHT22;16639;51.488;0.152;2022-12-29T05:53:18;9.40;99.90
29731;DHT22;16639;51.488;0.152;2022-12-29T05:55:48;9.40;99.90
29731;DHT22;16639;51.488;0.152;2022-12-29T05:58:16;9.40;99.90
29731;DHT22;16639;51.488;0.152;2022-12-29T06:00:43;9.40;99.90
29731;DHT22;16639;51.488;0.152;2022-12-29T06:03:11;9.40;99.90
29731;DHT22;16639;51.488;0.152;2022-12-29T06:05:39;9.30;99.90
29731;DHT22;16639;51.488;0.152;2022-12-29T06:08:06;9.50;99.90
29731;DHT22;16639;51.488;0.152;2022-12-29T06:10:33;9.50;99.90
29731;DHT22;16639;51.488;0.152;2022-12-29T06:13:00;9.60;99.90
29731;DHT22;16639;51.488;0.152;2022-12-29T06:15:27;9.60;99.90
29731;DHT22;16639;51.488;0.152;2022-12-29T06:17:55;9.50;99.90
29731;DHT22;16639;51.488;0.152;2022-12-29T06:20:22;11.00;99.90
29731;DHT22;16639;51.488;0.152;2022-12-29T06:22:50;9.50;99.90
29731;DHT22;16639;51.488;0.152;2022-12-29T06:25:17;9.50;99.90
29731;DHT22;16639;51.488;0.152;2022-12-29T06:27:44;9.50;99.90
29731;DHT22;16639;51.488;0.152;2022-12-29T06:30:12;9.40;99.90
29731;DHT22;16639;51.488;0.152;2022-12-29T06:32:40;9.50;99.90
29731;DHT22;16639;51.488;0.152;2022-12-29T06:35:08;9.40;99.90
29731;DHT22;16639;51.488;0.152;2022-12-29T06:37:35;9.40;99.90
29731;DHT22;16639;51.488;0.152;2022-12-29T06:40:02;9.40;99.90
29731;DHT22;16639;51.488;0.152;2022-12-29T06:42:30;9.40;99.90
29731;DHT22;16639;51.488;0.152;2022-12-29T06:44:57;9.40;99.90
29731;DHT22;16639;51.488;0.152;2022-12-29T06:47:25;9.40;99.90
29731;DHT22;16639;51.488;0.152;2022-12-29T06:49:53;9.40;99.90
29731;DHT22;16639;51.488;0.152;2022-12-29T06:52:20;9.40;99.90
29731;DHT22;16639;51.488;0.152;2022-12-29T06:54:47;9.30;99.90
29731;DHT22;16639;51.488;0.152;2022-12-29T06:57:16;9.30;99.90
29731;DHT22;16639;51.488;0.152;2022-12-29T06:59:43;9.30;99.90
29731;DHT22;16639;51.488;0.152;2022-12-29T07:02:11;9.30;99.90
29731;DHT22;16639;51.488;0.152;2022-12-29T07:04:38;8.80;99.90
29731;DHT22;16639;51.488;0.152;2022-12-29T07:07:05;9.30;99.90
29731;DHT22;16639;51.488;0.152;2022-12-29T07:09:32;9.30;99.90
29731;DHT22;16639;51.488;0.152;2022-12-29T07:12:00;9.30;99.90
29731;DHT22;16639;51.488;0.152;2022-12-29T07:14:27;9.30;99.90
29731;DHT22;16639;51.488;0.152;2022-12-29T07:16:56;9.20;99.90
29731;DHT22;16639;51.488;0.152;2022-12-29T07:19:23;9.20;99.90
29731;DHT22;16639;51.488;0.152;2022-12-29T07:21:50;9.20;99.90
29731;DHT22;16639;51.488;0.152;2022-12-29T07:24:17;9.10;99.90
29731;DHT22;16639;51.488;0.152;2022-12-29T07:26:44;9.20;99.90
29731;DHT22;16639;51.488;0.152;2022-12-29T07:29:12;9.10;99.90
29731;DHT22;16639;51.488;0.152;2022-12-29T07:31:39;9.30;99.90
29731;DHT22;16639;51.488;0.152;2022-12-29T07:34:07;9.10;99.90
29731;DHT22;16639;51.488;0.152;2022-12-29T07:36:34;9.10;99.90
29731;DHT22;16639;51.488;0.152;2022-12-29T07:39:02;9.10;99.90
29731;DHT22;16639;51.488;0.152;2022-12-29T07:41:29;9.00;99.90
29731;DHT22;16639;51.488;0.152;2022-12-29T07:43:56;9.00;99.90
29731;DHT22;16639;51.488;0.152;2022-12-29T07:46:23;8.90;99.90
29731;DHT22;16639;51.488;0.152;2022-12-29T07:49:10;9.00;99.90
29731;DHT22;16639;51.488;0.152;2022-12-29T07:51:37;9.00;99.90
29731;DHT22;16639;51.488;0.152;2022-12-29T07:54:04;9.00;99.90
29731;DHT22;16639;51.488;0.152;2022-12-29T07:56:32;8.90;99.90
29731;DHT22;16639;51.488;0.152;2022-12-29T07:58:59;8.90;99.90
29731;DHT22;16639;51.488;0.152;2022-12-29T08:01:27;8.90;99.90
29731;DHT22;16639;51.488;0.152;2022-12-29T08:03:55;8.90;99.90
29731;DHT22;16639;51.488;0.152;2022-12-29T08:06:23;8.90;99.90
29731;DHT22;16639;51.488;0.152;2022-12-29T08:08:52;8.80;99.90
29731;DHT22;16639;51.488;0.152;2022-12-29T08:11:19;8.80;99.90
29731;DHT22;16639;51.488;0.152;2022-12-29T08:13:47;8.90;99.90
29731;DHT22;16639;51.488;0.152;2022-12-29T08:16:14;8.90;99.90
29731;DHT22;16639;51.488;0.152;2022-12-29T08:18:41;8.90;99.90
29731;DHT22;16639;51.488;0.152;2022-12-29T08:21:08;8.10;99.90
29731;DHT22;16639;51.488;0.152;2022-12-29T08:23:36;8.90;99.90
29731;DHT22;16639;51.488;0.152;2022-12-29T08:26:04;8.80;99.90
29731;DHT22;16639;51.488;0.152;2022-12-29T08:28:32;8.80;99.90
29731;DHT22;16639;51.488;0.152;2022-12-29T08:31:00;9.00;99.90
29731;DHT22;16639;51.488;0.152;2022-12-29T08:33:28;8.90;99.90
29731;DHT22;16639;51.488;0.152;2022-12-29T08:35:59;8.90;99.90
29731;DHT22;16639;51.488;0.152;2022-12-29T08:38:26;8.80;99.90
29731;DHT22;16639;51.488;0.152;2022-12-29T08:40:53;8.90;99.90
29731;DHT22;16639;51.488;0.152;2022-12-29T08:43:21;8.90;99.90
29731;DHT22;16639;51.488;0.152;2022-12-29T08:45:49;8.80;99.90
29731;DHT22;16639;51.488;0.152;2022-12-29T08:48:16;8.90;99.90
29731;DHT22;16639;51.488;0.152;2022-12-29T08:50:46;8.90;99.90
29731;DHT22;16639;51.488;0.152;2022-12-29T08:53:13;8.90;99.90
29731;DHT22;16639;51.488;0.152;2022-12-29T08:55:40;8.90;99.90
29731;DHT22;16639;51.488;0.152;2022-12-29T08:58:09;8.90;99.90
29731;DHT22;16639;51.488;0.152;2022-12-29T09:00:41;8.90;99.90
29731;DHT22;16639;51.488;0.152;2022-12-29T09:03:08;8.90;99.90
29731;DHT22;16639;51.488;0.152;2022-12-29T09:05:36;8.90;99.90
29731;DHT22;16639;51.488;0.152;2022-12-29T09:08:04;9.00;99.90
29731;DHT22;16639;51.488;0.152;2022-12-29T09:10:32;9.00;99.90
29731;DHT22;16639;51.488;0.152;2022-12-29T09:13:01;9.00;99.90
29731;DHT22;16639;51.488;0.152;2022-12-29T09:15:28;9.00;99.90
29731;DHT22;16639;51.488;0.152;2022-12-29T09:17:56;8.90;99.90
29731;DHT22;16639;51.488;0.152;2022-12-29T09:20:23;8.90;99.90
29731;DHT22;16639;51.488;0.152;2022-12-29T09:22:50;8.90;99.90
29731;DHT22;16639;51.488;0.152;2022-12-29T09:25:17;8.90;99.90
29731;DHT22;16639;51.488;0.152;2022-12-29T09:27:45;8.90;99.90
29731;DHT22;16639;51.488;0.152;2022-12-29T09:30:12;8.90;99.90
29731;DHT22;16639;51.488;0.152;2022-12-29T09:32:41;8.90;99.90
29731;DHT22;16639;51.488;0.152;2022-12-29T09:35:13;8.90;99.90
29731;DHT22;16639;51.488;0.152;2022-12-29T09:37:41;8.90;99.90
29731;DHT22;16639;51.488;0.152;2022-12-29T09:40:15;8.90;99.90
29731;DHT22;16639;51.488;0.152;2022-12-29T09:45:36;8.90;99.90
29731;DHT22;16639;51.488;0.152;2022-12-29T09:48:07;9.00;99.90
29731;DHT22;16639;51.488;0.152;2022-12-29T09:50:38;8.90;99.90
29731;DHT22;16639;51.488;0.152;2022-12-29T09:55:54;9.00;99.90
29731;DHT22;16639;51.488;0.152;2022-12-29T09:58:29;9.00;99.90
29731;DHT22;16639;51.488;0.152;2022-12-29T10:01:03;8.70;99.90
29731;DHT22;16639;51.488;0.152;2022-12-29T10:03:36;9.00;99.90
29731;DHT22;16639;51.488;0.152;2022-12-29T10:11:06;9.20;99.90
29731;DHT22;16639;51.488;0.152;2022-12-29T10:13:40;9.20;99.90
29731;DHT22;16639;51.488;0.152;2022-12-29T10:23:53;9.50;99.90
29731;DHT22;16639;51.488;0.152;2022-12-29T10:26:23;9.50;99.90
29731;DHT22;16639;51.488;0.152;2022-12-29T10:29:08;9.50;99.90
29731;DHT22;16639;51.488;0.152;2022-12-29T10:31:39;9.50;99.90
29731;DHT22;16639;51.488;0.152;2022-12-29T10:34:14;9.40;99.90
29731;DHT22;16639;51.488;0.152;2022-12-29T10:36:43;9.50;99.90
29731;DHT22;16639;51.488;0.152;2022-12-29T10:39:22;9.40;99.90
29731;DHT22;16639;51.488;0.152;2022-12-29T10:41:51;9.40;99.90
29731;DHT22;16639;51.488;0.152;2022-12-29T10:44:20;9.40;99.90
29731;DHT22;16639;51.488;0.152;2022-12-29T10:46:51;9.40;99.90
29731;DHT22;16639;51.488;0.152;2022-12-29T10:49:20;9.40;99.90
29731;DHT22;16639;51.488;0.152;2022-12-29T10:51:49;9.30;99.90
29731;DHT22;16639;51.488;0.152;2022-12-29T10:57:11;9.40;99.90
29731;DHT22;16639;51.488;0.152;2022-12-29T10:59:41;9.50;99.90
29731;DHT22;16639;51.488;0.152;2022-12-29T11:04:42;9.50;99.90
29731;DHT22;16639;51.488;0.152;2022-12-29T11:07:14;9.40;99.90
29731;DHT22;16639;51.488;0.152;2022-12-29T11:09:45;9.50;99.90
29731;DHT22;16639;51.488;0.152;2022-12-29T11:12:20;9.50;99.90
29731;DHT22;16639;51.488;0.152;2022-12-29T11:15:11;9.40;99.90
29731;DHT22;16639;51.488;0.152;2022-12-29T11:17:48;9.40;99.90
29731;DHT22;16639;51.488;0.152;2022-12-29T11:20:35;9.50;99.90
29731;DHT22;16639;51.488;0.152;2022-12-29T11:26:11;9.40;99.90
29731;DHT22;16639;51.488;0.152;2022-12-29T11:28:40;9.40;99.90
29731;DHT22;16639;51.488;0.152;2022-12-29T11:31:08;9.40;99.90
29731;DHT22;16639;51.488;0.152;2022-12-29T11:33:36;9.30;99.90
29731;DHT22;16639;51.488;0.152;2022-12-29T11:36:05;9.40;99.90
29731;DHT22;16639;51.488;0.152;2022-12-29T11:38:34;9.40;99.90
29731;DHT22;16639;51.488;0.152;2022-12-29T11:41:09;9.40;99.90
29731;DHT22;16639;51.488;0.152;2022-12-29T11:43:38;9.40;99.90
29731;DHT22;16639;51.488;0.152;2022-12-29T11:46:07;9.60;99.90
29731;DHT22;16639;51.488;0.152;2022-12-29T11:48:43;9.40;99.90
29731;DHT22;16639;51.488;0.152;2022-12-29T11:51:10;9.40;99.90
29731;DHT22;16639;51.488;0.152;2022-12-29T11:53:44;9.40;99.90
29731;DHT22;16639;51.488;0.152;2022-12-29T11:56:16;9.40;99.90
29731;DHT22;16639;51.488;0.152;2022-12-29T11:58:43;9.40;99.90
29731;DHT22;16639;51.488;0.152;2022-12-29T12:01:13;8.50;99.90
29731;DHT22;16639;51.488;0.152;2022-12-29T12:04:16;9.50;99.90
29731;DHT22;16639;51.488;0.152;2022-12-29T12:06:38;9.50;99.90
29731;DHT22;16639;51.488;0.152;2022-12-29T12:09:14;9.90;99.90
29731;DHT22;16639;51.488;0.152;2022-12-29T12:11:43;9.50;99.90
29731;DHT22;16639;51.488;0.152;2022-12-29T12:19:45;9.50;99.90
29731;DHT22;16639;51.488;0.152;2022-12-29T12:22:21;9.40;99.90
29731;DHT22;16639;51.488;0.152;2022-12-29T12:24:57;9.40;99.90
29731;DHT22;16639;51.488;0.152;2022-12-29T12:27:28;9.40;99.90
29731;DHT22;16639;51.488;0.152;2022-12-29T12:30:01;9.40;99.90
29731;DHT22;16639;51.488;0.152;2022-12-29T12:32:52;9.20;99.90
29731;DHT22;16639;51.488;0.152;2022-12-29T12:38:18;9.80;99.90
29731;DHT22;16639;51.488;0.152;2022-12-29T13:02:20;9.30;99.90
29731;DHT22;16639;51.488;0.152;2022-12-29T13:09:54;9.30;99.90
29731;DHT22;16639;51.488;0.152;2022-12-29T13:12:41;9.60;99.90
29731;DHT22;16639;51.488;0.152;2022-12-29T13:17:53;9.40;99.90
29731;DHT22;16639;51.488;0.152;2022-12-29T13:25:48;10.10;99.90
29731;DHT22;16639;51.488;0.152;2022-12-29T13:30:56;9.50;99.90
29731;DHT22;16639;51.488;0.152;2022-12-29T13:33:39;9.50;99.90
29731;DHT22;16639;51.488;0.152;2022-12-29T13:37:11;10.00;99.90
29731;DHT22;16639;51.488;0.152;2022-12-29T13:41:50;9.60;99.90
29731;DHT22;16639;51.488;0.152;2022-12-29T13:44:22;9.60;99.90
29731;DHT22;16639;51.488;0.152;2022-12-29T13:46:51;8.80;99.90
29731;DHT22;16639;51.488;0.152;2022-12-29T13:49:20;9.50;99.90
29731;DHT22;16639;51.488;0.152;2022-12-29T13:51:50;10.70;99.90
29731;DHT22;16639;51.488;0.152;2022-12-29T13:59:25;9.40;99.90
29731;DHT22;16639;51.488;0.152;2022-12-29T14:02:01;9.40;99.90
29731;DHT22;16639;51.488;0.152;2022-12-29T14:04:30;9.40;99.90
29731;DHT22;16639;51.488;0.152;2022-12-29T14:07:02;9.40;99.90
29731;DHT22;16639;51.488;0.152;2022-12-29T14:12:40;9.30;99.90
29731;DHT22;16639;51.488;0.152;2022-12-29T14:15:04;9.40;99.90
29731;DHT22;16639;51.488;0.152;2022-12-29T14:17:31;9.40;99.90
29731;DHT22;16639;51.488;0.152;2022-12-29T14:19:58;10.90;99.90
29731;DHT22;16639;51.488;0.152;2022-12-29T14:22:27;9.50;99.90
29731;DHT22;16639;51.488;0.152;2022-12-29T14:24:59;9.50;99.90
29731;DHT22;16639;51.488;0.152;2022-12-29T14:29:56;9.40;99.90
29731;DHT22;16639;51.488;0.152;2022-12-29T14:34:55;9.40;99.90
29731;DHT22;16639;51.488;0.152;2022-12-29T14:39:54;9.30;99.90
29731;DHT22;16639;51.488;0.152;2022-12-29T14:42:29;9.40;99.90
29731;DHT22;16639;51.488;0.152;2022-12-29T14:44:59;9.40;99.90
29731;DHT22;16639;51.488;0.152;2022-12-29T14:49:54;9.30;99.90
29731;DHT22;16639;51.488;0.152;2022-12-29T14:52:25;9.30;99.90
29731;DHT22;16639;51.488;0.152;2022-12-29T14:54:59;9.30;99.90
29731;DHT22;16639;51.488;0.152;2022-12-29T14:57:50;9.20;99.90
29731;DHT22;16639;51.488;0.152;2022-12-29T15:00:22;9.30;99.90
29731;DHT22;16639;51.488;0.152;2022-12-29T15:02:54;9.30;99.90
29731;DHT22;16639;51.488;0.152;2022-12-29T15:05:34;9.30;99.90
29731;DHT22;16639;51.488;0.152;2022-12-29T15:08:02;9.30;99.90
29731;DHT22;16639;51.488;0.152;2022-12-29T15:11:04;9.30;99.90
29731;DHT22;16639;51.488;0.152;2022-12-29T15:13:24;9.20;99.90
29731;DHT22;16639;51.488;0.152;2022-12-29T15:15:53;9.20;99.90
29731;DHT22;16639;51.488;0.152;2022-12-29T15:18:28;9.20;99.90
29731;DHT22;16639;51.488;0.152;2022-12-29T15:20:57;10.30;99.90
29731;DHT22;16639;51.488;0.152;2022-12-29T15:23:24;9.20;99.90
29731;DHT22;16639;51.488;0.152;2022-12-29T15:25:56;9.10;99.90
29731;DHT22;16639;51.488;0.152;2022-12-29T15:28:24;9.20;99.90
29731;DHT22;16639;51.488;0.152;2022-12-29T15:31:02;9.30;99.90
29731;DHT22;16639;51.488;0.152;2022-12-29T15:33:36;9.30;99.90
29731;DHT22;16639;51.488;0.152;2022-12-29T15:36:08;9.40;99.90
29731;DHT22;16639;51.488;0.152;2022-12-29T15:38:36;9.40;99.90
29731;DHT22;16639;51.488;0.152;2022-12-29T15:41:13;9.40;99.90
29731;DHT22;16639;51.488;0.152;2022-12-29T15:44:29;9.40;99.90
29731;DHT22;16639;51.488;0.152;2022-12-29T15:46:31;9.40;99.90
29731;DHT22;16639;51.488;0.152;2022-12-29T15:48:58;9.40;99.90
29731;DHT22;16639;51.488;0.152;2022-12-29T15:51:28;9.40;99.90
29731;DHT22;16639;51.488;0.152;2022-12-29T15:53:56;9.40;99.90
29731;DHT22;16639;51.488;0.152;2022-12-29T15:56:31;9.30;99.90
29731;DHT22;16639;51.488;0.152;2022-12-29T15:58:59;9.40;99.90
29731;DHT22;16639;51.488;0.152;2022-12-29T16:01:30;9.40;99.90
29731;DHT22;16639;51.488;0.152;2022-12-29T16:03:59;9.30;99.90
29731;DHT22;16639;51.488;0.152;2022-12-29T16:06:33;9.30;99.90
29731;DHT22;16639;51.488;0.152;2022-12-29T16:11:37;9.20;99.90
29731;DHT22;16639;51.488;0.152;2022-12-29T16:14:07;9.10;99.90
29731;DHT22;16639;51.488;0.152;2022-12-29T16:16:36;9.10;99.90
29731;DHT22;16639;51.488;0.152;2022-12-29T16:19:39;9.10;99.90
29731;DHT22;16639;51.488;0.152;2022-12-29T16:21:58;9.00;99.90
29731;DHT22;16639;51.488;0.152;2022-12-29T16:24:28;9.00;99.90
29731;DHT22;16639;51.488;0.152;2022-12-29T16:29:57;8.90;99.90
29731;DHT22;16639;51.488;0.152;2022-12-29T16:32:28;8.90;99.90
29731;DHT22;16639;51.488;0.152;2022-12-29T16:35:09;8.90;99.90
29731;DHT22;16639;51.488;0.152;2022-12-29T16:37:37;8.90;99.90
29731;DHT22;16639;51.488;0.152;2022-12-29T16:42:47;8.90;99.90
29731;DHT22;16639;51.488;0.152;2022-12-29T16:47:45;8.80;99.90
29731;DHT22;16639;51.488;0.152;2022-12-29T16:50:16;8.80;99.90
29731;DHT22;16639;51.488;0.152;2022-12-29T16:52:54;9.40;99.90
29731;DHT22;16639;51.488;0.152;2022-12-29T16:55:21;8.80;99.90
29731;DHT22;16639;51.488;0.152;2022-12-29T16:57:49;9.20;99.90
29731;DHT22;16639;51.488;0.152;2022-12-29T17:00:21;8.80;99.90
29731;DHT22;16639;51.488;0.152;2022-12-29T17:02:50;8.70;99.90
29731;DHT22;16639;51.488;0.152;2022-12-29T17:05:19;8.70;99.90
29731;DHT22;16639;51.488;0.152;2022-12-29T17:07:46;8.80;99.90
29731;DHT22;16639;51.488;0.152;2022-12-29T17:10:14;8.80;99.90
29731;DHT22;16639;51.488;0.152;2022-12-29T17:12:43;8.70;99.90
29731;DHT22;16639;51.488;0.152;2022-12-29T17:17:42;8.70;99.90
29731;DHT22;16639;51.488;0.152;2022-12-29T17:22:47;8.60;99.90
29731;DHT22;16639;51.488;0.152;2022-12-29T17:25:15;8.60;99.90
29731;DHT22;16639;51.488;0.152;2022-12-29T17:27:44;8.60;99.90
29731;DHT22;16639;51.488;0.152;2022-12-29T17:30:15;8.60;99.90
29731;DHT22;16639;51.488;0.152;2022-12-29T17:32:43;8.60;99.90
29731;DHT22;16639;51.488;0.152;2022-12-29T17:35:13;8.50;99.90
29731;DHT22;16639;51.488;0.152;2022-12-29T17:37:41;8.50;99.90
29731;DHT22;16639;51.488;0.152;2022-12-29T17:40:11;8.40;99.90
29731;DHT22;16639;51.488;0.152;2022-12-29T17:42:41;8.50;99.90
29731;DHT22;16639;51.488;0.152;2022-12-29T17:45:12;8.50;99.90
29731;DHT22;16639;51.488;0.152;2022-12-29T17:47:39;8.50;99.90
29731;DHT22;16639;51.488;0.152;2022-12-29T17:50:13;8.50;99.90
29731;DHT22;16639;51.488;0.152;2022-12-29T17:52:41;8.50;99.90
29731;DHT22;16639;51.488;0.152;2022-12-29T17:55:14;8.50;99.90
29731;DHT22;16639;51.488;0.152;2022-12-29T17:57:42;8.40;99.90
29731;DHT22;16639;51.488;0.152;2022-12-29T18:00:13;8.40;99.90
29731;DHT22;16639;51.488;0.152;2022-12-29T18:02:41;8.40;99.90
29731;DHT22;16639;51.488;0.152;2022-12-29T18:05:12;8.40;99.90
29731;DHT22;16639;51.488;0.152;2022-12-29T18:07:41;8.40;99.90
29731;DHT22;16639;51.488;0.152;2022-12-29T18:10:08;8.30;99.90
29731;DHT22;16639;51.488;0.152;2022-12-29T18:12:39;8.40;99.90
29731;DHT22;16639;51.488;0.152;2022-12-29T18:15:09;8.40;99.90
29731;DHT22;16639;51.488;0.152;2022-12-29T18:17:39;8.30;99.90
29731;DHT22;16639;51.488;0.152;2022-12-29T18:20:06;8.30;99.90
29731;DHT22;16639;51.488;0.152;2022-12-29T18:22:34;8.40;99.90